Terminal Aerodrome Forecast
Issued by NWS

Home | Current Version | Previous Version | Text Only | Print | Product List | Glossary On
Versions: 1 2 3 4 5 6 7 8 9 10 11 12 13 14 15 16 17 18 19
000
FTUS42 KILM 190500
TAFCRE
TAF
KCRE 190522Z 1906/2006 05006KT P6SM SKC
     FM190900 05006KT P6SM BKN025
     FM191500 08011G17KT P6SM VCSH SCT030 BKN060
     FM200000 07007KT P6SM SCT030=

USA.gov is the U.S. government's official web portal to all federal, state and local government web resources and services.